Time;durP1;ratioP1;P1;durP2;ratioP2;P2;SDS_P1;SDS_P2;PMS_P1;PMS_P2;Temp;Humidity;BMP_temperature;BMP_pressure;BME280_temperature;BME280_humidity;BME280_pressure;Samples;Min_cycle;Max_cycle;Signal;HPM_P1;HPM_P2
2021/10/23 02:08:01;;;;;;;20.4;17.8;;;;;;;7.3;83.6;102200;;;;
2021/10/23 02:14:01;;;;;;;20.4;17.8;;;;;;;7.2;83.7;102200;;;;
2021/10/23 02:16:01;;;;;;;20.4;17.8;;;;;;;7.3;84.0;102210;;;;
2021/10/23 02:18:01;;;;;;;20.4;17.8;;;;;;;7.2;83.8;102220;;;;
2021/10/23 02:26:01;;;;;;;20.4;17.8;;;;;;;7.1;83.4;102220;;;;
2021/10/23 02:28:01;;;;;;;24.6;20.2;;;;;;;7.2;83.2;102220;;;;
2021/10/23 02:30:01;;;;;;;24.6;20.2;;;;;;;7.1;83.1;102220;;;;
2021/10/23 02:40:01;;;;;;;24.6;20.2;;;;;;;7.0;82.7;102210;;;;
2021/10/23 02:46:01;;;;;;;24.6;20.2;;;;;;;6.9;82.7;102230;;;;
2021/10/23 02:48:01;;;;;;;25.4;21.8;;;;;;;7.0;82.6;102240;;;;
2021/10/23 02:50:01;;;;;;;25.4;21.8;;;;;;;6.9;82.8;102240;;;;
2021/10/23 02:54:01;;;;;;;25.4;21.8;;;;;;;6.8;82.3;102240;;;;
2021/10/23 03:02:01;;;;;;;25.4;21.8;;;;;;;6.6;82.9;102230;;;;
2021/10/23 03:08:01;;;;;;;26.1;23.4;;;;;;;6.7;82.6;102240;;;;
2021/10/23 03:10:01;;;;;;;26.1;23.4;;;;;;;6.6;82.8;102240;;;;
2021/10/23 03:16:01;;;;;;;26.1;23.4;;;;;;;6.5;82.4;102240;;;;
2021/10/23 03:22:01;;;;;;;26.1;23.4;;;;;;;6.4;82.5;102230;;;;
2021/10/23 03:26:01;;;;;;;26.1;23.4;;;;;;;6.3;83.0;102240;;;;
2021/10/23 03:28:01;;;;;;;27.3;24.4;;;;;;;6.4;83.2;102240;;;;
2021/10/23 03:32:01;;;;;;;27.3;24.4;;;;;;;6.3;82.7;102260;;;;
2021/10/23 03:44:01;;;;;;;27.3;24.4;;;;;;;6.2;82.6;102260;;;;
2021/10/23 03:48:01;;;;;;;25.2;22.6;;;;;;;6.3;82.6;102270;;;;
2021/10/23 03:50:01;;;;;;;25.2;22.6;;;;;;;6.2;82.6;102270;;;;
2021/10/23 04:14:01;;;;;;;34.3;26.5;;;;;;;6.3;82.7;102280;;;;
2021/10/23 04:16:01;;;;;;;34.3;26.5;;;;;;;6.2;82.6;102280;;;;
2021/10/23 04:18:02;;;;;;;34.3;26.5;;;;;;;6.1;83.5;102280;;;;
2021/10/23 04:20:01;;;;;;;34.3;26.5;;;;;;;6.2;83.3;102280;;;;
2021/10/23 04:22:01;;;;;;;34.3;26.5;;;;;;;6.1;83.1;102280;;;;
2021/10/23 04:26:01;;;;;;;34.3;26.5;;;;;;;6.0;83.0;102280;;;;
2021/10/23 04:30:01;;;;;;;25.7;23.1;;;;;;;6.1;82.8;102280;;;;
2021/10/23 04:32:01;;;;;;;25.7;23.1;;;;;;;6.0;82.8;102280;;;;
2021/10/23 04:46:01;;;;;;;25.7;23.1;;;;;;;6.1;82.9;102290;;;;
2021/10/23 04:50:01;;;;;;;57.3;29.1;;;;;;;6.0;82.9;102290;;;;
2021/10/23 04:58:01;;;;;;;57.3;29.1;;;;;;;6.1;83.8;102290;;;;
2021/10/23 05:06:01;;;;;;;57.3;29.1;;;;;;;6.2;84.0;102290;;;;
2021/10/23 05:08:01;;;;;;;132.4;36.2;;;;;;;6.1;84.9;102290;;;;
2021/10/23 05:10:01;;;;;;;132.4;36.2;;;;;;;6.2;84.6;102280;;;;
2021/10/23 05:26:01;;;;;;;132.4;36.2;;;;;;;6.3;83.6;102300;;;;
2021/10/23 05:30:01;;;;;;;61.9;28.9;;;;;;;6.2;83.6;102300;;;;
2021/10/23 05:34:01;;;;;;;61.9;28.9;;;;;;;6.3;83.3;102300;;;;
2021/10/23 05:36:01;;;;;;;61.9;28.9;;;;;;;6.2;83.8;102300;;;;
2021/10/23 05:48:01;;;;;;;59.3;31.6;;;;;;;6.1;83.8;102310;;;;
2021/10/23 05:54:01;;;;;;;59.3;31.6;;;;;;;6.2;83.2;102320;;;;
2021/10/23 05:58:02;;;;;;;59.3;31.6;;;;;;;6.1;83.9;102330;;;;
2021/10/23 06:00:06;;;;;;;59.3;31.6;;;;;;;6.2;83.7;102330;;;;
2021/10/23 06:02:11;;;;;;;59.3;31.6;;;;;;;6.1;83.3;102330;;;;
2021/10/23 06:08:01;;;;;;;128.6;35.8;;;;;;;6.2;83.2;102340;;;;
2021/10/23 06:10:01;;;;;;;128.6;35.8;;;;;;;6.1;83.6;102350;;;;
2021/10/23 06:16:01;;;;;;;128.6;35.8;;;;;;;6.2;83.7;102360;;;;
2021/10/23 06:18:02;;;;;;;128.6;35.8;;;;;;;6.1;83.9;102360;;;;
2021/10/23 06:22:01;;;;;;;128.6;35.8;;;;;;;6.2;83.4;102370;;;;
2021/10/23 06:24:01;;;;;;;128.6;35.8;;;;;;;6.1;83.3;102360;;;;
2021/10/23 06:28:01;;;;;;;127.5;33.9;;;;;;;6.2;84.1;102360;;;;
2021/10/23 06:42:01;;;;;;;127.5;33.9;;;;;;;6.3;83.7;102390;;;;
2021/10/23 06:56:01;;;;;;;79.6;30.8;;;;;;;6.4;83.6;102400;;;;
2021/10/23 06:58:01;;;;;;;79.6;30.8;;;;;;;6.5;83.7;102400;;;;
2021/10/23 07:00:01;;;;;;;79.6;30.8;;;;;;;6.4;83.9;102400;;;;
2021/10/23 07:04:01;;;;;;;79.6;30.8;;;;;;;6.5;84.2;102410;;;;
2021/10/23 07:06:01;;;;;;;79.6;30.8;;;;;;;6.4;84.2;102410;;;;
2021/10/23 07:08:01;;;;;;;60.7;30.2;;;;;;;6.5;84.7;102410;;;;
2021/10/23 07:12:01;;;;;;;60.7;30.2;;;;;;;6.6;84.5;102420;;;;
2021/10/23 07:16:01;;;;;;;60.7;30.2;;;;;;;6.7;83.6;102430;;;;
2021/10/23 07:20:01;;;;;;;60.7;30.2;;;;;;;6.8;84.3;102430;;;;
2021/10/23 07:26:01;;;;;;;60.7;30.2;;;;;;;7.1;85.0;102440;;;;
2021/10/23 07:38:01;;;;;;;148.7;37.6;;;;;;;7.2;85.4;102450;;;;
2021/10/23 07:46:01;;;;;;;148.7;37.6;;;;;;;7.4;84.7;102470;;;;
2021/10/23 08:00:01;;;;;;;41.1;32.4;;;;;;;7.6;84.6;102490;;;;
2021/10/23 08:02:01;;;;;;;41.1;32.4;;;;;;;7.7;85.0;102480;;;;
2021/10/23 08:04:01;;;;;;;41.1;32.4;;;;;;;7.6;84.3;102490;;;;
2021/10/23 08:06:01;;;;;;;41.1;32.4;;;;;;;7.7;84.6;102490;;;;
2021/10/23 08:12:01;;;;;;;45.2;32.9;;;;;;;7.8;84.2;102500;;;;
2021/10/23 08:16:01;;;;;;;45.2;32.9;;;;;;;7.9;84.9;102500;;;;
2021/10/23 08:22:01;;;;;;;45.2;32.9;;;;;;;8.1;85.7;102500;;;;
2021/10/23 08:26:01;;;;;;;45.2;32.9;;;;;;;8.4;85.8;102500;;;;
2021/10/23 08:28:01;;;;;;;50.2;35.6;;;;;;;8.3;84.9;102510;;;;
2021/10/23 08:30:01;;;;;;;50.2;35.6;;;;;;;8.2;85.9;102510;;;;
2021/10/23 08:32:01;;;;;;;50.2;35.6;;;;;;;8.1;85.0;102510;;;;
2021/10/23 08:34:01;;;;;;;50.2;35.6;;;;;;;8.2;85.7;102510;;;;
2021/10/23 08:36:01;;;;;;;50.2;35.6;;;;;;;8.1;85.3;102510;;;;
2021/10/23 08:38:01;;;;;;;50.2;35.6;;;;;;;8.2;86.4;102510;;;;
2021/10/23 08:40:01;;;;;;;50.2;35.6;;;;;;;8.3;86.3;102510;;;;
2021/10/23 08:46:01;;;;;;;47.5;33.1;;;;;;;8.4;86.2;102520;;;;
2021/10/23 08:48:01;;;;;;;47.5;33.1;;;;;;;8.3;85.3;102520;;;;
2021/10/23 08:52:01;;;;;;;47.5;33.1;;;;;;;8.4;85.1;102530;;;;
2021/10/23 08:58:01;;;;;;;47.5;33.1;;;;;;;8.5;86.0;102530;;;;
2021/10/23 09:02:01;;;;;;;47.5;33.1;;;;;;;8.6;85.7;102540;;;;
2021/10/23 09:08:01;;;;;;;52.2;37.9;;;;;;;8.7;85.4;102540;;;;
2021/10/23 09:10:01;;;;;;;52.2;37.9;;;;;;;8.8;86.7;102540;;;;
2021/10/23 09:12:02;;;;;;;52.2;37.9;;;;;;;8.9;86.9;102540;;;;
2021/10/23 09:16:01;;;;;;;52.2;37.9;;;;;;;9.1;86.3;102540;;;;
2021/10/23 09:20:01;;;;;;;52.2;37.9;;;;;;;9.2;86.3;102550;;;;
2021/10/23 09:22:01;;;;;;;52.2;37.9;;;;;;;9.3;86.5;102550;;;;
2021/10/23 09:24:01;;;;;;;52.2;37.9;;;;;;;9.2;86.1;102550;;;;
2021/10/23 09:26:01;;;;;;;52.7;39.0;;;;;;;9.3;86.8;102550;;;;
2021/10/23 09:28:01;;;;;;;52.7;39.0;;;;;;;9.4;85.9;102540;;;;
2021/10/23 09:34:01;;;;;;;52.7;39.0;;;;;;;9.5;86.7;102530;;;;
2021/10/23 09:36:03;;;;;;;52.7;39.0;;;;;;;9.4;86.4;102540;;;;
2021/10/23 09:40:01;;;;;;;52.7;39.0;;;;;;;9.5;87.0;102540;;;;
2021/10/23 09:42:01;;;;;;;52.7;39.0;;;;;;;9.6;86.5;102540;;;;
2021/10/23 09:46:01;;;;;;;54.0;40.1;;;;;;;9.7;86.9;102540;;;;
2021/10/23 09:48:01;;;;;;;54.0;40.1;;;;;;;9.8;87.1;102540;;;;
2021/10/23 09:50:01;;;;;;;54.0;40.1;;;;;;;9.9;87.1;102540;;;;
2021/10/23 09:58:01;;;;;;;54.0;40.1;;;;;;;9.8;87.2;102540;;;;
2021/10/23 10:00:01;;;;;;;54.0;40.1;;;;;;;9.9;87.4;102540;;;;
2021/10/23 10:04:01;;;;;;;54.0;40.1;;;;;;;10.1;87.5;102550;;;;
2021/10/23 10:08:01;;;;;;;66.0;46.6;;;;;;;10.3;87.6;102550;;;;
2021/10/23 10:14:01;;;;;;;66.0;46.6;;;;;;;10.4;87.4;102550;;;;
2021/10/23 10:16:02;;;;;;;66.0;46.6;;;;;;;10.5;87.1;102550;;;;
2021/10/23 10:18:01;;;;;;;66.0;46.6;;;;;;;10.6;87.6;102560;;;;
2021/10/23 10:24:01;;;;;;;66.0;46.6;;;;;;;10.7;86.3;102560;;;;
2021/10/23 10:26:01;;;;;;;49.8;41.4;;;;;;;10.8;87.0;102560;;;;
2021/10/23 10:28:01;;;;;;;49.8;41.4;;;;;;;10.9;87.6;102560;;;;
2021/10/23 10:30:01;;;;;;;49.8;41.4;;;;;;;11.1;86.1;102560;;;;
2021/10/23 10:32:07;;;;;;;49.8;41.4;;;;;;;11.0;86.0;102560;;;;
2021/10/23 10:38:09;;;;;;;49.8;41.4;;;;;;;11.1;86.5;102560;;;;
2021/10/23 10:46:03;;;;;;;42.9;36.2;;;;;;;11.3;87.0;102560;;;;
2021/10/23 10:50:01;;;;;;;42.9;36.2;;;;;;;11.5;85.6;102550;;;;
2021/10/23 10:52:01;;;;;;;42.9;36.2;;;;;;;11.4;85.7;102560;;;;
2021/10/23 11:00:03;;;;;;;42.9;36.2;;;;;;;11.6;85.7;102550;;;;
2021/10/23 11:12:03;;;;;;;33.6;28.0;;;;;;;11.8;84.3;102550;;;;
2021/10/23 11:14:01;;;;;;;33.6;28.0;;;;;;;11.7;84.7;102550;;;;
2021/10/23 11:20:06;;;;;;;33.6;28.0;;;;;;;11.8;84.7;102550;;;;
2021/10/23 11:24:01;;;;;;;33.6;28.0;;;;;;;11.9;84.3;102540;;;;
2021/10/23 11:30:01;;;;;;;28.8;25.7;;;;;;;12.0;83.9;102540;;;;
2021/10/23 11:38:01;;;;;;;28.8;25.7;;;;;;;12.1;82.5;102540;;;;
2021/10/23 11:42:01;;;;;;;28.8;25.7;;;;;;;12.2;82.4;102530;;;;
2021/10/23 11:44:01;;;;;;;28.8;25.7;;;;;;;12.0;82.6;102530;;;;
2021/10/23 11:46:05;;;;;;;23.7;19.5;;;;;;;12.1;81.8;102520;;;;
2021/10/23 11:48:01;;;;;;;23.7;19.5;;;;;;;11.9;80.6;102520;;;;
2021/10/23 11:52:01;;;;;;;23.7;19.5;;;;;;;12.0;82.6;102520;;;;
2021/10/23 11:54:01;;;;;;;23.7;19.5;;;;;;;12.1;82.5;102520;;;;
2021/10/23 11:58:01;;;;;;;23.7;19.5;;;;;;;12.2;82.0;102530;;;;
2021/10/23 12:00:01;;;;;;;23.7;19.5;;;;;;;12.1;80.8;102520;;;;
2021/10/23 12:02:01;;;;;;;23.7;19.5;;;;;;;12.2;81.0;102520;;;;
2021/10/23 12:04:01;;;;;;;23.7;19.5;;;;;;;12.3;80.5;102530;;;;
2021/10/23 12:10:01;;;;;;;20.3;17.5;;;;;;;12.4;81.5;102540;;;;
2021/10/23 12:16:01;;;;;;;20.3;17.5;;;;;;;12.3;81.0;102540;;;;
2021/10/23 12:18:04;;;;;;;20.3;17.5;;;;;;;12.5;80.2;102540;;;;
2021/10/23 12:22:01;;;;;;;20.3;17.5;;;;;;;12.4;80.5;102540;;;;
2021/10/23 12:24:01;;;;;;;20.3;17.5;;;;;;;12.6;80.0;102540;;;;
2021/10/23 12:30:02;;;;;;;17.3;15.2;;;;;;;12.4;79.0;102540;;;;
2021/10/23 12:32:01;;;;;;;17.3;15.2;;;;;;;12.5;81.1;102540;;;;
2021/10/23 12:34:01;;;;;;;17.3;15.2;;;;;;;12.6;80.4;102540;;;;
2021/10/23 12:40:01;;;;;;;17.3;15.2;;;;;;;12.5;78.7;102530;;;;
2021/10/23 12:42:01;;;;;;;17.3;15.2;;;;;;;12.6;79.3;102530;;;;
2021/10/23 12:44:01;;;;;;;17.3;15.2;;;;;;;12.7;77.3;102530;;;;
2021/10/23 12:46:01;;;;;;;12.4;9.8;;;;;;;12.8;77.2;102530;;;;
2021/10/23 12:48:02;;;;;;;12.4;9.8;;;;;;;12.7;77.8;102520;;;;
2021/10/23 12:52:01;;;;;;;12.4;9.8;;;;;;;12.8;77.8;102520;;;;
2021/10/23 13:02:01;;;;;;;12.4;9.8;;;;;;;12.9;76.9;102510;;;;
2021/10/23 13:04:03;;;;;;;12.4;9.8;;;;;;;13.0;77.2;102510;;;;
2021/10/23 13:06:01;;;;;;;12.2;8.6;;;;;;;12.9;77.6;102500;;;;
2021/10/23 13:14:01;;;;;;;12.2;8.6;;;;;;;13.0;76.0;102500;;;;
2021/10/23 13:16:01;;;;;;;12.2;8.6;;;;;;;12.9;75.7;102500;;;;
2021/10/23 13:20:01;;;;;;;12.2;8.6;;;;;;;13.0;75.6;102500;;;;
2021/10/23 13:22:01;;;;;;;12.2;8.6;;;;;;;13.1;74.5;102500;;;;
2021/10/23 13:24:01;;;;;;;12.2;8.6;;;;;;;13.0;74.3;102490;;;;
2021/10/23 13:26:01;;;;;;;9.2;7.3;;;;;;;13.1;75.5;102490;;;;
2021/10/23 13:28:01;;;;;;;9.2;7.3;;;;;;;13.2;74.2;102490;;;;
2021/10/23 13:30:01;;;;;;;9.2;7.3;;;;;;;13.3;74.1;102490;;;;
2021/10/23 13:34:01;;;;;;;9.2;7.3;;;;;;;13.4;73.8;102480;;;;
2021/10/23 13:38:01;;;;;;;9.2;7.3;;;;;;;13.2;72.2;102490;;;;
2021/10/23 13:44:01;;;;;;;9.2;7.3;;;;;;;13.1;70.9;102490;;;;
2021/10/23 13:58:01;;;;;;;5.9;4.1;;;;;;;13.2;71.1;102470;;;;
2021/10/23 14:02:02;;;;;;;5.9;4.1;;;;;;;13.1;71.2;102470;;;;
2021/10/23 14:08:01;;;;;;;6.1;4.4;;;;;;;13.2;68.4;102480;;;;
2021/10/23 14:10:01;;;;;;;6.1;4.4;;;;;;;13.1;71.9;102480;;;;
2021/10/23 14:12:01;;;;;;;6.1;4.4;;;;;;;13.2;70.9;102490;;;;
2021/10/23 14:16:01;;;;;;;6.1;4.4;;;;;;;13.5;71.3;102490;;;;
2021/10/23 14:18:01;;;;;;;6.1;4.4;;;;;;;13.4;70.2;102480;;;;
2021/10/23 14:22:02;;;;;;;6.1;4.4;;;;;;;13.3;72.0;102480;;;;
2021/10/23 14:24:01;;;;;;;6.1;4.4;;;;;;;13.4;71.6;102480;;;;
2021/10/23 14:26:01;;;;;;;7.8;4.2;;;;;;;13.5;71.2;102480;;;;
2021/10/23 14:28:10;;;;;;;7.8;4.2;;;;;;;13.3;70.6;102480;;;;
2021/10/23 14:30:01;;;;;;;7.8;4.2;;;;;;;13.4;71.9;102480;;;;
2021/10/23 14:32:01;;;;;;;7.8;4.2;;;;;;;13.3;70.6;102490;;;;
2021/10/23 14:34:01;;;;;;;7.8;4.2;;;;;;;13.4;69.9;102490;;;;
2021/10/23 14:36:01;;;;;;;7.8;4.2;;;;;;;13.2;70.1;102490;;;;
2021/10/23 14:40:01;;;;;;;7.8;4.2;;;;;;;13.1;69.7;102490;;;;
2021/10/23 14:44:01;;;;;;;7.8;4.2;;;;;;;13.0;69.8;102490;;;;
2021/10/23 14:48:01;;;;;;;4.4;4.0;;;;;;;13.1;68.3;102490;;;;
2021/10/23 14:50:01;;;;;;;4.4;4.0;;;;;;;12.9;69.3;102490;;;;
2021/10/23 14:52:01;;;;;;;4.4;4.0;;;;;;;12.8;70.2;102490;;;;
2021/10/23 14:54:01;;;;;;;4.4;4.0;;;;;;;12.9;69.9;102490;;;;
2021/10/23 15:02:02;;;;;;;4.4;4.0;;;;;;;13.1;70.6;102490;;;;
2021/10/23 15:06:01;;;;;;;7.9;5.2;;;;;;;13.2;71.7;102490;;;;
2021/10/23 15:14:01;;;;;;;7.9;5.2;;;;;;;13.0;70.3;102490;;;;
2021/10/23 15:20:01;;;;;;;7.9;5.2;;;;;;;13.1;69.6;102480;;;;
2021/10/23 15:22:01;;;;;;;7.9;5.2;;;;;;;13.0;69.9;102480;;;;
2021/10/23 15:30:01;;;;;;;9.1;5.1;;;;;;;12.9;70.0;102490;;;;
2021/10/23 15:34:01;;;;;;;9.1;5.1;;;;;;;12.7;70.2;102490;;;;
2021/10/23 15:38:01;;;;;;;9.1;5.1;;;;;;;12.6;70.1;102490;;;;
2021/10/23 15:44:02;;;;;;;9.1;5.1;;;;;;;12.5;71.8;102490;;;;
2021/10/23 15:46:01;;;;;;;15.5;8.9;;;;;;;12.4;70.8;102490;;;;
2021/10/23 15:52:01;;;;;;;15.5;8.9;;;;;;;12.3;72.1;102490;;;;
2021/10/23 15:58:01;;;;;;;15.5;8.9;;;;;;;12.2;73.1;102490;;;;
2021/10/23 16:00:01;;;;;;;15.5;8.9;;;;;;;12.3;73.9;102490;;;;
2021/10/23 16:02:01;;;;;;;15.5;8.9;;;;;;;12.2;73.2;102490;;;;
2021/10/23 16:06:01;;;;;;;10.5;8.5;;;;;;;12.1;73.5;102500;;;;
2021/10/23 16:12:01;;;;;;;10.5;8.5;;;;;;;12.0;74.2;102500;;;;
2021/10/23 16:16:01;;;;;;;10.5;8.5;;;;;;;11.9;74.7;102500;;;;
2021/10/23 16:24:01;;;;;;;10.5;8.5;;;;;;;11.8;74.8;102500;;;;
2021/10/23 16:28:01;;;;;;;11.5;10.3;;;;;;;11.7;74.8;102500;;;;
2021/10/23 16:30:01;;;;;;;11.5;10.3;;;;;;;11.6;74.2;102500;;;;
2021/10/23 16:32:01;;;;;;;11.5;10.3;;;;;;;11.5;75.5;102500;;;;
2021/10/23 16:34:01;;;;;;;11.5;10.3;;;;;;;11.4;74.8;102500;;;;
2021/10/23 16:40:01;;;;;;;11.5;10.3;;;;;;;11.3;75.8;102500;;;;
2021/10/23 16:44:01;;;;;;;11.5;10.3;;;;;;;11.2;75.4;102500;;;;
2021/10/23 16:48:01;;;;;;;14.6;11.5;;;;;;;11.3;76.1;102500;;;;
2021/10/23 16:50:01;;;;;;;14.6;11.5;;;;;;;11.2;75.4;102500;;;;
2021/10/23 16:52:01;;;;;;;14.6;11.5;;;;;;;11.1;76.0;102500;;;;
2021/10/23 16:58:01;;;;;;;14.6;11.5;;;;;;;11.0;75.7;102510;;;;
2021/10/23 17:02:02;;;;;;;14.6;11.5;;;;;;;10.9;76.1;102500;;;;
2021/10/23 17:12:01;;;;;;;14.9;12.2;;;;;;;10.8;76.3;102510;;;;
2021/10/23 17:18:01;;;;;;;14.9;12.2;;;;;;;10.7;76.7;102500;;;;
2021/10/23 17:20:01;;;;;;;14.9;12.2;;;;;;;10.6;76.7;102510;;;;
2021/10/23 17:22:01;;;;;;;14.9;12.2;;;;;;;10.7;76.6;102500;;;;
2021/10/23 17:24:01;;;;;;;14.9;12.2;;;;;;;10.8;76.9;102500;;;;
2021/10/23 17:26:01;;;;;;;19.9;17.5;;;;;;;10.7;76.4;102510;;;;
2021/10/23 17:28:01;;;;;;;19.9;17.5;;;;;;;10.6;76.2;102510;;;;
2021/10/23 17:30:01;;;;;;;19.9;17.5;;;;;;;10.5;77.0;102510;;;;
2021/10/23 17:34:01;;;;;;;19.9;17.5;;;;;;;10.4;76.6;102510;;;;
2021/10/23 17:42:01;;;;;;;19.9;17.5;;;;;;;10.3;76.6;102520;;;;
2021/10/23 17:48:01;;;;;;;17.7;15.8;;;;;;;10.2;77.2;102520;;;;
2021/10/23 17:58:02;;;;;;;17.7;15.8;;;;;;;10.1;77.7;102530;;;;
2021/10/23 18:00:01;;;;;;;17.7;15.8;;;;;;;10.2;77.8;102530;;;;
2021/10/23 18:08:04;;;;;;;22.2;19.1;;;;;;;10.0;77.5;102530;;;;
2021/10/23 18:14:02;;;;;;;22.2;19.1;;;;;;;9.9;77.8;102530;;;;
2021/10/23 18:16:05;;;;;;;22.2;19.1;;;;;;;10.0;77.5;102530;;;;
2021/10/23 18:22:01;;;;;;;22.2;19.1;;;;;;;10.0;77.8;102530;;;;
2021/10/23 18:24:01;;;;;;;22.2;19.1;;;;;;;9.9;77.5;102540;;;;
2021/10/23 18:28:01;;;;;;;23.4;21.0;;;;;;;9.8;77.6;102540;;;;
2021/10/23 18:32:02;;;;;;;23.4;21.0;;;;;;;9.7;77.4;102540;;;;
2021/10/23 18:36:02;;;;;;;23.4;21.0;;;;;;;9.5;78.0;102540;;;;
2021/10/23 18:38:01;;;;;;;23.4;21.0;;;;;;;9.6;77.8;102540;;;;
2021/10/23 18:42:01;;;;;;;23.4;21.0;;;;;;;9.5;78.4;102550;;;;
2021/10/23 18:44:01;;;;;;;23.4;21.0;;;;;;;9.6;77.9;102540;;;;
2021/10/23 18:46:01;;;;;;;16.1;14.2;;;;;;;9.5;78.1;102540;;;;
2021/10/23 18:48:01;;;;;;;16.1;14.2;;;;;;;9.4;78.4;102540;;;;
2021/10/23 18:58:01;;;;;;;16.1;14.2;;;;;;;9.3;78.2;102540;;;;
2021/10/23 19:06:01;;;;;;;14.4;12.2;;;;;;;9.2;78.1;102540;;;;
2021/10/23 19:12:01;;;;;;;14.4;12.2;;;;;;;9.3;78.8;102530;;;;
2021/10/23 19:14:01;;;;;;;14.4;12.2;;;;;;;9.2;78.2;102530;;;;
2021/10/23 19:18:01;;;;;;;14.4;12.2;;;;;;;9.1;78.7;102530;;;;
2021/10/23 19:20:01;;;;;;;14.4;12.2;;;;;;;9.2;78.5;102530;;;;
2021/10/23 19:24:01;;;;;;;15.1;11.9;;;;;;;9.3;78.5;102520;;;;
2021/10/23 19:26:01;;;;;;;15.1;11.9;;;;;;;9.2;78.1;102520;;;;
2021/10/23 19:28:01;;;;;;;15.1;11.9;;;;;;;9.1;78.3;102520;;;;
2021/10/23 19:32:02;;;;;;;15.1;11.9;;;;;;;9.0;78.1;102520;;;;
2021/10/23 19:36:01;;;;;;;15.1;11.9;;;;;;;8.9;78.5;102520;;;;
2021/10/23 19:38:01;;;;;;;15.1;11.9;;;;;;;8.8;78.5;102520;;;;
2021/10/23 19:46:01;;;;;;;19.6;11.4;;;;;;;8.9;78.6;102520;;;;
2021/10/23 19:48:01;;;;;;;19.6;11.4;;;;;;;8.8;78.7;102520;;;;
2021/10/23 20:02:03;;;;;;;19.6;11.4;;;;;;;8.7;78.6;102520;;;;
2021/10/23 20:06:01;;;;;;;16.4;12.6;;;;;;;8.6;78.9;102520;;;;
2021/10/23 20:14:01;;;;;;;16.4;12.6;;;;;;;8.5;78.9;102530;;;;
2021/10/23 20:16:01;;;;;;;16.4;12.6;;;;;;;8.6;79.0;102530;;;;
2021/10/23 20:18:04;;;;;;;16.4;12.6;;;;;;;8.5;79.0;102520;;;;
2021/10/23 20:20:01;;;;;;;16.4;12.6;;;;;;;8.4;79.2;102520;;;;
2021/10/23 20:22:01;;;;;;;16.4;12.6;;;;;;;8.3;79.2;102520;;;;
2021/10/23 20:24:01;;;;;;;13.9;11.0;;;;;;;8.4;79.1;102530;;;;
2021/10/23 20:32:01;;;;;;;13.9;11.0;;;;;;;8.5;79.1;102520;;;;
2021/10/23 20:34:01;;;;;;;13.9;11.0;;;;;;;8.4;78.6;102520;;;;
2021/10/23 20:36:01;;;;;;;13.9;11.0;;;;;;;8.2;79.4;102530;;;;
2021/10/23 20:38:01;;;;;;;13.9;11.0;;;;;;;8.3;79.2;102530;;;;
2021/10/23 20:42:01;;;;;;;13.9;11.0;;;;;;;8.4;79.1;102530;;;;
2021/10/23 20:46:01;;;;;;;12.1;10.6;;;;;;;8.3;78.8;102530;;;;
2021/10/23 20:52:01;;;;;;;12.1;10.6;;;;;;;8.2;79.1;102530;;;;
2021/10/23 20:54:01;;;;;;;12.1;10.6;;;;;;;8.3;79.1;102530;;;;
2021/10/23 20:56:01;;;;;;;12.1;10.6;;;;;;;8.2;79.3;102520;;;;
2021/10/23 20:58:01;;;;;;;12.1;10.6;;;;;;;8.3;79.5;102530;;;;
2021/10/23 21:02:01;;;;;;;12.1;10.6;;;;;;;8.2;78.8;102530;;;;
2021/10/23 21:04:01;;;;;;;14.7;10.6;;;;;;;8.1;79.1;102520;;;;
2021/10/23 21:06:01;;;;;;;14.7;10.6;;;;;;;8.2;79.1;102530;;;;
2021/10/23 21:14:01;;;;;;;14.7;10.6;;;;;;;8.1;79.1;102520;;;;
2021/10/23 21:22:01;;;;;;;14.7;10.6;;;;;;;8.2;78.8;102520;;;;
2021/10/23 21:24:01;;;;;;;14.5;11.3;;;;;;;8.1;78.7;102530;;;;
2021/10/23 21:32:01;;;;;;;14.5;11.3;;;;;;;8.0;79.1;102530;;;;
2021/10/23 21:34:01;;;;;;;14.5;11.3;;;;;;;8.1;79.0;102530;;;;
2021/10/23 21:36:01;;;;;;;14.5;11.3;;;;;;;8.0;79.1;102540;;;;
2021/10/23 21:42:01;;;;;;;14.5;11.3;;;;;;;7.8;79.7;102540;;;;
2021/10/23 21:44:01;;;;;;;16.2;12.1;;;;;;;8.0;79.3;102540;;;;
2021/10/23 21:48:01;;;;;;;16.2;12.1;;;;;;;7.9;79.1;102530;;;;
2021/10/23 21:58:01;;;;;;;16.2;12.1;;;;;;;7.8;78.8;102530;;;;
2021/10/23 22:02:01;;;;;;;16.2;12.1;;;;;;;7.7;78.8;102530;;;;
2021/10/23 22:04:01;;;;;;;13.3;11.9;;;;;;;7.8;78.8;102530;;;;
2021/10/23 22:08:01;;;;;;;13.3;11.9;;;;;;;7.5;79.7;102530;;;;
2021/10/23 22:10:01;;;;;;;13.3;11.9;;;;;;;7.6;79.6;102530;;;;
2021/10/23 22:12:01;;;;;;;13.3;11.9;;;;;;;7.5;79.5;102530;;;;
2021/10/23 22:14:01;;;;;;;13.3;11.9;;;;;;;7.4;80.0;102520;;;;
2021/10/23 22:16:01;;;;;;;13.3;11.9;;;;;;;7.6;79.7;102520;;;;
2021/10/23 22:20:01;;;;;;;13.3;11.9;;;;;;;7.5;79.4;102520;;;;
2021/10/23 22:22:01;;;;;;;13.3;11.9;;;;;;;7.6;79.1;102510;;;;
2021/10/23 22:26:01;;;;;;;15.8;13.1;;;;;;;7.5;79.3;102510;;;;
2021/10/23 22:28:02;;;;;;;15.8;13.1;;;;;;;7.4;79.7;102510;;;;
2021/10/23 22:30:01;;;;;;;15.8;13.1;;;;;;;7.5;79.4;102510;;;;
2021/10/23 22:34:02;;;;;;;15.8;13.1;;;;;;;7.4;79.7;102510;;;;
2021/10/23 22:38:01;;;;;;;15.8;13.1;;;;;;;7.3;80.1;102520;;;;
2021/10/23 22:40:01;;;;;;;15.8;13.1;;;;;;;7.4;79.5;102500;;;;
2021/10/23 22:42:01;;;;;;;15.8;13.1;;;;;;;7.3;79.8;102510;;;;
2021/10/23 22:48:01;;;;;;;17.4;14.0;;;;;;;7.4;79.3;102500;;;;
2021/10/23 22:50:01;;;;;;;17.4;14.0;;;;;;;7.3;79.5;102500;;;;
2021/10/23 22:54:01;;;;;;;17.4;14.0;;;;;;;7.2;80.4;102500;;;;
2021/10/23 22:56:01;;;;;;;17.4;14.0;;;;;;;7.3;80.2;102500;;;;
2021/10/23 23:00:01;;;;;;;17.4;14.0;;;;;;;7.2;79.9;102500;;;;
2021/10/23 23:02:01;;;;;;;17.4;14.0;;;;;;;7.3;79.6;102490;;;;
2021/10/23 23:06:01;;;;;;;17.7;14.0;;;;;;;7.2;79.6;102490;;;;
2021/10/23 23:08:01;;;;;;;17.7;14.0;;;;;;;7.3;79.6;102490;;;;
2021/10/23 23:10:02;;;;;;;17.7;14.0;;;;;;;7.2;79.7;102490;;;;
2021/10/23 23:18:01;;;;;;;17.7;14.0;;;;;;;7.1;79.8;102490;;;;
2021/10/23 23:22:01;;;;;;;17.7;14.0;;;;;;;7.0;80.1;102490;;;;
2021/10/23 23:24:02;;;;;;;17.2;15.0;;;;;;;7.1;80.1;102490;;;;
2021/10/23 23:28:01;;;;;;;17.2;15.0;;;;;;;7.0;80.5;102490;;;;
2021/10/23 23:42:01;;;;;;;17.2;15.0;;;;;;;6.9;80.1;102490;;;;
2021/10/23 23:48:01;;;;;;;17.4;15.6;;;;;;;7.0;79.6;102490;;;;
2021/10/23 23:50:01;;;;;;;17.4;15.6;;;;;;;6.9;79.4;102490;;;;
2021/10/23 23:52:01;;;;;;;17.4;15.6;;;;;;;7.0;79.9;102490;;;;
2021/10/23 23:54:01;;;;;;;17.4;15.6;;;;;;;6.9;79.6;102490;;;;
